Portada
METAR-TAF:

METAR-TAF

Aeropuertos :

Aeropuerto Internacional de Johannesburgo-Oliver Reginald Tambo

Johannesburgo, Sudáfrica

latitud: 26-08S, longitud: 028-14E, altitud: 1694 m

Observación

El informe se hizo hace 31 minutos, a las 13:00 UTC
Viento 10 kt del suroeste
Temperatura 27°C
Humedad 23%
Presión 1024 hPa
Visibilidad 10 km o más
sin nubes por debajo de 1500 m y sin presencia de cumulonimbus.

METAR: FAOR 231300Z 22010KT CAVOK 27/04 Q1024 NOSIG

Hora: 15:31 (13:31 UTC)

Pronóstico

El informe se hizo hace 3 horas y 31 minutos, a las 10:00 UTC
Pronóstico válido del 23 a las 12 UTC al 24 a las 18 UTC
Viento 3 kt con dirección variable
Visibilidad 10 km o más
sin nubes por debajo de 1500 m y sin presencia de cumulonimbus.

TAF: FAOR 231000Z 2312/2418 VRB03KT CAVOK TX29/2313Z TN18/2405Z

Observaciones y pronósticos meteorológicos de más de 4000 aeropuertos (mensajes METAR y TAF).

Los puntos amarillos y rojos representan las estaciones disponibles.

Ponga el ratón en el punto deseado para ver el nombre de la estación.

Haga clic para ver las observaciones y los pronósticos meteorológicos.

Para cambiar el mapa : haga clic en los botones verdes con una cruz de color negro para hacer un zoom, en el botón verde con un guión para alejar o en las flechas verdes para mapas adyacentes.


METAR-TAF: